createdAt,value
2019-01-15T00:00:49.201Z,1004.82
2019-01-15T00:01:49.187Z,1004.79
2019-01-15T00:02:49.177Z,1004.76
2019-01-15T00:03:49.165Z,1004.84
2019-01-15T00:04:49.156Z,1004.85
2019-01-15T00:05:49.146Z,1004.84
2019-01-15T00:06:49.130Z,1004.75
2019-01-15T00:07:49.117Z,1004.80
2019-01-15T00:08:49.109Z,1004.85
2019-01-15T00:09:49.094Z,1004.85
2019-01-15T00:10:49.098Z,1004.91
2019-01-15T00:11:49.072Z,1004.90
2019-01-15T00:12:49.060Z,1004.95
2019-01-15T00:13:49.047Z,1004.90
2019-01-15T00:14:49.036Z,1004.83
2019-01-15T00:15:49.025Z,1004.85
2019-01-15T00:16:49.016Z,1004.89
2019-01-15T00:17:49.001Z,1004.77
2019-01-15T00:18:48.992Z,1004.89
2019-01-15T00:19:48.977Z,1004.80
2019-01-15T00:20:48.967Z,1004.88
2019-01-15T00:21:48.958Z,1004.87
2019-01-15T00:22:48.946Z,1004.93
2019-01-15T00:23:48.933Z,1004.84
2019-01-15T00:24:48.973Z,1004.84
2019-01-15T00:25:48.911Z,1004.91
2019-01-15T00:26:48.898Z,1004.87
2019-01-15T00:27:48.888Z,1004.88
2019-01-15T00:28:48.878Z,1004.83
2019-01-15T00:29:48.864Z,1004.93
2019-01-15T00:30:48.854Z,1004.93
2019-01-15T00:31:48.845Z,1004.97
2019-01-15T00:32:48.832Z,1004.84
2019-01-15T00:33:48.819Z,1004.98
2019-01-15T00:34:48.814Z,1004.96
2019-01-15T00:35:48.797Z,1004.92
2019-01-15T00:36:48.786Z,1004.96
2019-01-15T00:37:48.774Z,1004.92
2019-01-15T00:38:48.761Z,1004.91
2019-01-15T00:39:48.749Z,1004.91
2019-01-15T00:40:48.742Z,1004.91
2019-01-15T00:41:48.728Z,1004.93
2019-01-15T00:42:48.727Z,1004.92
2019-01-15T00:43:48.714Z,1004.95
2019-01-15T00:44:48.693Z,1004.89
2019-01-15T00:45:48.679Z,1004.94
2019-01-15T00:46:48.671Z,1005.02
2019-01-15T00:47:48.660Z,1004.98
2019-01-15T00:48:48.650Z,1005.02
2019-01-15T00:49:48.636Z,1004.93
2019-01-15T00:50:48.627Z,1004.91
2019-01-15T00:51:48.614Z,1004.97
2019-01-15T00:52:48.604Z,1005.02
2019-01-15T00:53:48.591Z,1005.03
2019-01-15T00:54:48.580Z,1004.99
2019-01-15T00:55:48.571Z,1004.98
2019-01-15T00:56:48.561Z,1005.07
2019-01-15T00:57:48.546Z,1005.01
2019-01-15T00:58:48.534Z,1005.01
2019-01-15T00:59:48.522Z,1004.99
2019-01-15T01:00:48.513Z,1005.04
2019-01-15T01:01:48.500Z,1004.98
2019-01-15T01:02:48.492Z,1005.07
2019-01-15T01:03:48.479Z,1005.14
2019-01-15T01:04:48.467Z,1005.12
2019-01-15T01:05:48.455Z,1005.06
2019-01-15T01:06:48.446Z,1005.12
2019-01-15T01:07:48.431Z,1005.01
2019-01-15T01:08:48.421Z,1005.10
2019-01-15T01:09:48.412Z,1005.10
2019-01-15T01:10:48.397Z,1005.12
2019-01-15T01:11:48.387Z,1005.16
2019-01-15T01:12:48.376Z,1005.16
2019-01-15T01:13:48.368Z,1005.12
2019-01-15T01:14:48.353Z,1005.08
2019-01-15T01:15:48.344Z,1005.11
2019-01-15T01:16:48.330Z,1005.13
2019-01-15T01:17:48.317Z,1005.20
2019-01-15T01:18:48.304Z,1005.13
2019-01-15T01:19:48.297Z,1005.18
2019-01-15T01:20:48.285Z,1005.25
2019-01-15T01:21:48.272Z,1005.25
2019-01-15T01:22:48.261Z,1005.28
2019-01-15T01:23:48.252Z,1005.24
2019-01-15T01:24:48.242Z,1005.32
2019-01-15T01:25:48.228Z,1005.21
2019-01-15T01:26:48.216Z,1005.27
2019-01-15T01:27:48.205Z,1005.24
2019-01-15T01:28:48.193Z,1005.33
2019-01-15T01:29:48.184Z,1005.31
2019-01-15T01:30:48.176Z,1005.39
2019-01-15T01:31:48.159Z,1005.31
2019-01-15T01:32:48.149Z,1005.33
2019-01-15T01:33:48.137Z,1005.35
2019-01-15T01:34:48.127Z,1005.39
2019-01-15T01:35:48.115Z,1005.35
2019-01-15T01:36:48.104Z,1005.33
2019-01-15T01:37:48.091Z,1005.31
2019-01-15T01:38:48.082Z,1005.37
2019-01-15T01:39:48.070Z,1005.35
2019-01-15T01:40:48.058Z,1005.34
2019-01-15T01:41:48.048Z,1005.35
2019-01-15T01:42:48.037Z,1005.36
2019-01-15T01:43:48.023Z,1005.40
2019-01-15T01:44:48.016Z,1005.45
2019-01-15T01:45:48.001Z,1005.50
2019-01-15T01:46:47.989Z,1005.40
2019-01-15T01:47:47.979Z,1005.33
2019-01-15T01:48:47.975Z,1005.45
2019-01-15T01:49:47.956Z,1005.46
2019-01-15T01:50:47.943Z,1005.56
2019-01-15T01:51:47.934Z,1005.50
2019-01-15T01:52:47.922Z,1005.50
2019-01-15T01:53:47.911Z,1005.57
2019-01-15T01:54:47.903Z,1005.47
2019-01-15T01:55:47.893Z,1005.50
2019-01-15T01:56:47.877Z,1005.57
2019-01-15T01:57:47.867Z,1005.57
2019-01-15T01:58:47.854Z,1005.56
2019-01-15T01:59:47.847Z,1005.55
2019-01-15T02:00:47.834Z,1005.63
2019-01-15T02:01:47.822Z,1005.64
2019-01-15T02:02:47.811Z,1005.62
2019-01-15T02:03:47.800Z,1005.62
2019-01-15T02:04:47.791Z,1005.65
2019-01-15T02:05:47.776Z,1005.65
2019-01-15T02:06:47.763Z,1005.68
2019-01-15T02:07:47.752Z,1005.71
2019-01-15T02:08:47.741Z,1005.63
2019-01-15T02:09:47.730Z,1005.68
2019-01-15T02:10:47.721Z,1005.69
2019-01-15T02:11:47.710Z,1005.72
2019-01-15T02:12:47.705Z,1005.72
2019-01-15T02:13:47.687Z,1005.73
2019-01-15T02:14:47.673Z,1005.69
2019-01-15T02:15:47.665Z,1005.70
2019-01-15T02:16:47.651Z,1005.66
2019-01-15T02:17:47.641Z,1005.65
2019-01-15T02:18:47.629Z,1005.60
2019-01-15T02:19:47.621Z,1005.54
2019-01-15T02:20:47.606Z,1005.63
2019-01-15T02:21:47.595Z,1005.56
2019-01-15T02:22:47.583Z,1005.67
2019-01-15T02:23:47.573Z,1005.69
2019-01-15T02:24:47.561Z,1005.61
2019-01-15T02:25:47.555Z,1005.59
2019-01-15T02:26:47.538Z,1005.57
2019-01-15T02:27:47.529Z,1005.72
2019-01-15T02:28:47.518Z,1005.76
2019-01-15T02:29:47.504Z,1005.82
2019-01-15T02:30:47.494Z,1005.87
2019-01-15T02:31:47.490Z,1005.81
2019-01-15T02:32:47.474Z,1005.77
2019-01-15T02:33:47.467Z,1005.68
2019-01-15T02:34:47.449Z,1005.65
2019-01-15T02:35:47.438Z,1005.66
2019-01-15T02:36:47.428Z,1005.56
2019-01-15T02:37:47.417Z,1005.69
2019-01-15T02:38:47.405Z,1005.70
2019-01-15T02:39:47.394Z,1005.71
2019-01-15T02:40:47.384Z,1005.67
2019-01-15T02:41:47.374Z,1005.71
2019-01-15T02:42:47.451Z,1005.77
2019-01-15T02:43:47.353Z,1005.76
2019-01-15T02:44:47.340Z,1005.77
2019-01-15T02:45:47.327Z,1005.83
2019-01-15T02:46:47.319Z,1005.75
2019-01-15T02:47:47.306Z,1005.84
2019-01-15T02:48:47.296Z,1005.76
2019-01-15T02:49:47.296Z,1005.83
2019-01-15T02:50:47.275Z,1005.81
2019-01-15T02:51:47.262Z,1005.78
2019-01-15T02:52:47.250Z,1005.89
2019-01-15T02:53:47.237Z,1005.80
2019-01-15T02:54:47.227Z,1005.78
2019-01-15T02:55:47.218Z,1005.80
2019-01-15T02:56:47.212Z,1005.74
2019-01-15T02:57:47.199Z,1005.74
2019-01-15T02:58:47.184Z,1005.69
2019-01-15T02:59:47.172Z,1005.68
2019-01-15T03:00:47.162Z,1005.70
2019-01-15T03:01:47.155Z,1005.72
2019-01-15T03:02:47.142Z,1005.71
2019-01-15T03:03:47.128Z,1005.71
2019-01-15T03:04:47.119Z,1005.73
2019-01-15T03:05:47.109Z,1005.79
2019-01-15T03:06:47.096Z,1005.85
2019-01-15T03:07:47.084Z,1005.77
2019-01-15T03:08:47.074Z,1005.73
2019-01-15T03:09:47.064Z,1005.85
2019-01-15T03:10:47.051Z,1005.83
2019-01-15T03:11:47.042Z,1005.79
2019-01-15T03:12:54.491Z,1005.86
2019-01-15T03:13:47.016Z,1005.83
2019-01-15T03:14:47.002Z,1005.83
2019-01-15T03:15:46.994Z,1005.81
2019-01-15T03:16:46.982Z,1005.84
2019-01-15T03:17:46.969Z,1005.80
2019-01-15T03:18:47.785Z,1005.88
2019-01-15T03:19:46.948Z,1005.92
2019-01-15T03:20:46.936Z,1005.92
2019-01-15T03:21:46.924Z,1005.96
2019-01-15T03:22:46.912Z,1005.94
2019-01-15T03:23:46.902Z,1005.93
2019-01-15T03:24:46.892Z,1005.95
2019-01-15T03:25:46.883Z,1005.99
2019-01-15T03:26:46.868Z,1005.85
2019-01-15T03:27:46.859Z,1005.89
2019-01-15T03:28:46.846Z,1005.91
2019-01-15T03:29:46.834Z,1005.97
2019-01-15T03:30:46.832Z,1005.97
2019-01-15T03:31:46.813Z,1005.91
2019-01-15T03:32:46.810Z,1005.94
2019-01-15T03:33:46.789Z,1005.89
2019-01-15T03:34:46.778Z,1005.93
2019-01-15T03:35:46.765Z,1005.79
2019-01-15T03:36:46.756Z,1005.79
2019-01-15T03:37:46.744Z,1005.85
2019-01-15T03:38:46.730Z,1005.90
2019-01-15T03:39:46.723Z,1005.91
2019-01-15T03:40:46.717Z,1005.87
2019-01-15T03:41:46.697Z,1005.97
2019-01-15T03:42:46.686Z,1005.91
2019-01-15T03:43:46.676Z,1005.98
2019-01-15T03:44:46.666Z,1006.00
2019-01-15T03:45:46.653Z,1005.96
2019-01-15T03:46:46.640Z,1005.99
2019-01-15T03:47:46.633Z,1005.93
2019-01-15T03:48:46.619Z,1005.93
2019-01-15T03:49:46.606Z,1005.98
2019-01-15T03:50:46.598Z,1005.96
2019-01-15T03:51:46.585Z,1005.95
2019-01-15T03:52:46.574Z,1005.96
2019-01-15T03:53:46.561Z,1005.97
2019-01-15T03:54:46.552Z,1005.90
2019-01-15T03:55:46.540Z,1005.84
2019-01-15T03:56:46.529Z,1005.95
2019-01-15T03:57:46.516Z,1005.86
2019-01-15T03:58:46.505Z,1005.90
2019-01-15T03:59:46.494Z,1005.96
2019-01-15T04:00:46.486Z,1005.90
2019-01-15T04:01:46.470Z,1005.90
2019-01-15T04:02:46.467Z,1005.90
2019-01-15T04:03:46.447Z,1005.87
2019-01-15T04:04:46.437Z,1005.97
2019-01-15T04:05:46.449Z,1005.97
2019-01-15T04:06:46.416Z,1005.96
2019-01-15T04:07:46.403Z,1005.98
2019-01-15T04:08:46.393Z,1005.96
2019-01-15T04:09:46.384Z,1005.99
2019-01-15T04:10:46.371Z,1005.99
2019-01-15T04:11:46.360Z,1006.02
2019-01-15T04:12:46.344Z,1006.06
2019-01-15T04:13:46.338Z,1006.08
2019-01-15T04:14:46.329Z,1006.02
2019-01-15T04:15:46.314Z,1006.10
2019-01-15T04:16:46.302Z,1006.10
2019-01-15T04:17:46.295Z,1006.05
2019-01-15T04:18:46.280Z,1006.09
2019-01-15T04:19:46.271Z,1006.16
2019-01-15T04:20:46.258Z,1006.19
2019-01-15T04:21:46.251Z,1006.20
2019-01-15T04:22:46.238Z,1006.18
2019-01-15T04:23:46.230Z,1006.22
2019-01-15T04:24:46.215Z,1006.17
2019-01-15T04:25:46.208Z,1006.20
2019-01-15T04:26:46.187Z,1006.24
2019-01-15T04:27:46.185Z,1006.20
2019-01-15T04:28:46.175Z,1006.17
2019-01-15T04:29:46.158Z,1006.13
2019-01-15T04:30:46.145Z,1006.20
2019-01-15T04:31:46.136Z,1006.07
2019-01-15T04:32:46.123Z,1006.12
2019-01-15T04:33:46.112Z,1006.13
2019-01-15T04:34:46.104Z,1006.02
2019-01-15T04:35:46.091Z,1006.03
2019-01-15T04:36:46.083Z,1006.04
2019-01-15T04:37:46.066Z,1006.03
2019-01-15T04:38:46.057Z,1006.09
2019-01-15T04:39:46.046Z,1006.07
2019-01-15T04:40:46.034Z,1006.03
2019-01-15T04:41:46.026Z,1006.00
2019-01-15T04:42:46.012Z,1005.97
2019-01-15T04:43:46.001Z,1006.03
2019-01-15T04:44:46.000Z,1005.97
2019-01-15T04:45:45.978Z,1006.00
2019-01-15T04:46:45.970Z,1005.91
2019-01-15T04:47:45.958Z,1005.89
2019-01-15T04:48:45.944Z,1005.92
2019-01-15T04:49:45.934Z,1005.97
2019-01-15T04:50:45.923Z,1005.90
2019-01-15T04:51:45.911Z,1005.88
2019-01-15T04:52:45.899Z,1005.80
2019-01-15T04:53:45.896Z,1005.89
2019-01-15T04:54:45.878Z,1005.94
2019-01-15T04:55:45.869Z,1005.93
2019-01-15T04:56:45.857Z,1005.97
2019-01-15T04:57:45.845Z,1005.93
2019-01-15T04:58:46.439Z,1005.87
2019-01-15T04:59:45.823Z,1005.89
2019-01-15T05:00:45.814Z,1005.80
2019-01-15T05:01:45.803Z,1005.87
2019-01-15T05:02:45.791Z,1005.80
2019-01-15T05:03:45.782Z,1005.83
2019-01-15T05:04:45.770Z,1005.82
2019-01-15T05:05:45.756Z,1005.82
2019-01-15T05:06:45.747Z,1005.83
2019-01-15T05:07:45.738Z,1005.77
2019-01-15T05:08:45.726Z,1005.73
2019-01-15T05:09:45.713Z,1005.83
2019-01-15T05:10:45.704Z,1005.83
2019-01-15T05:11:45.692Z,1005.72
2019-01-15T05:12:45.685Z,1005.79
2019-01-15T05:13:45.674Z,1005.71
2019-01-15T05:14:45.660Z,1005.68
2019-01-15T05:15:45.651Z,1005.74
2019-01-15T05:16:45.640Z,1005.75
2019-01-15T05:17:45.639Z,1005.71
2019-01-15T05:18:45.615Z,1005.66
2019-01-15T05:19:45.615Z,1005.64
2019-01-15T05:20:45.613Z,1005.65
2019-01-15T05:21:45.586Z,1005.71
2019-01-15T05:22:45.574Z,1005.71
2019-01-15T05:23:45.569Z,1005.64
2019-01-15T05:24:45.552Z,1005.69
2019-01-15T05:25:45.542Z,1005.68
2019-01-15T05:26:45.527Z,1005.65
2019-01-15T05:27:45.520Z,1005.68
2019-01-15T05:28:45.508Z,1005.68
2019-01-15T05:29:45.501Z,1005.72
2019-01-15T05:30:45.487Z,1005.69
2019-01-15T05:31:45.481Z,1005.73
2019-01-15T05:32:45.468Z,1005.75
2019-01-15T05:33:45.455Z,1005.70
2019-01-15T05:34:45.446Z,1005.76
2019-01-15T05:35:45.435Z,1005.72
2019-01-15T05:36:45.429Z,1005.76
2019-01-15T05:37:45.415Z,1005.78
2019-01-15T05:38:45.407Z,1005.84
2019-01-15T05:39:45.396Z,1005.83
2019-01-15T05:40:45.383Z,1005.72
2019-01-15T05:41:45.371Z,1005.68
2019-01-15T05:42:45.360Z,1005.74
2019-01-15T05:43:45.351Z,1005.68
2019-01-15T05:44:45.339Z,1005.73
2019-01-15T05:45:45.328Z,1005.78
2019-01-15T05:46:45.317Z,1005.76
2019-01-15T05:47:45.313Z,1005.67
2019-01-15T05:48:45.299Z,1005.66
2019-01-15T05:49:45.284Z,1005.62
2019-01-15T05:50:45.278Z,1005.67
2019-01-15T05:51:45.263Z,1005.67
2019-01-15T05:52:45.267Z,1005.65
2019-01-15T05:53:45.241Z,1005.67
2019-01-15T05:54:45.235Z,1005.66
2019-01-15T05:55:45.220Z,1005.66
2019-01-15T05:56:45.210Z,1005.64
2019-01-15T05:57:45.199Z,1005.75
2019-01-15T05:58:45.189Z,1005.70
2019-01-15T05:59:45.179Z,1005.59
2019-01-15T06:00:45.171Z,1005.72
2019-01-15T06:01:45.159Z,1005.73
2019-01-15T06:02:45.143Z,1005.82
2019-01-15T06:03:45.135Z,1005.72
2019-01-15T06:04:45.128Z,1005.66
2019-01-15T06:05:45.113Z,1005.74
2019-01-15T06:06:45.108Z,1005.67
2019-01-15T06:07:45.098Z,1005.76
2019-01-15T06:08:45.081Z,1005.71
2019-01-15T06:09:45.071Z,1005.77
2019-01-15T06:10:45.061Z,1005.79
2019-01-15T06:11:45.050Z,1005.74
2019-01-15T06:12:45.039Z,1005.70
2019-01-15T06:13:45.031Z,1005.72
2019-01-15T06:14:45.014Z,1005.66
2019-01-15T06:15:45.007Z,1005.67
2019-01-15T06:16:45.005Z,1005.52
2019-01-15T06:17:44.989Z,1005.55
2019-01-15T06:18:44.976Z,1005.53
2019-01-15T06:19:44.967Z,1005.59
2019-01-15T06:20:44.955Z,1005.52
2019-01-15T06:21:44.943Z,1005.55
2019-01-15T06:22:44.935Z,1005.43
2019-01-15T06:23:44.925Z,1005.51
2019-01-15T06:24:44.920Z,1005.51
2019-01-15T06:25:44.901Z,1005.53
2019-01-15T06:26:44.893Z,1005.44
2019-01-15T06:27:44.880Z,1005.51
2019-01-15T06:28:44.871Z,1005.54
2019-01-15T06:29:44.857Z,1005.50
2019-01-15T06:30:44.847Z,1005.61
2019-01-15T06:31:44.878Z,1005.54
2019-01-15T06:32:44.823Z,1005.58
2019-01-15T06:33:44.818Z,1005.49
2019-01-15T06:34:44.804Z,1005.52
2019-01-15T06:35:44.796Z,1005.55
2019-01-15T06:36:44.785Z,1005.54
2019-01-15T06:37:44.773Z,1005.59
2019-01-15T06:38:44.773Z,1005.55
2019-01-15T06:39:44.756Z,1005.51
2019-01-15T06:40:44.743Z,1005.70
2019-01-15T06:41:44.736Z,1005.62
2019-01-15T06:42:44.723Z,1005.65
2019-01-15T06:43:49.980Z,1005.51
2019-01-15T06:44:44.703Z,1005.61
2019-01-15T06:45:44.690Z,1005.62
2019-01-15T06:46:44.681Z,1005.59
2019-01-15T06:47:44.672Z,1005.61
2019-01-15T06:48:44.658Z,1005.66
2019-01-15T06:49:44.651Z,1005.54
2019-01-15T06:50:44.635Z,1005.52
2019-01-15T06:51:44.627Z,1005.46
2019-01-15T06:52:44.620Z,1005.57
2019-01-15T06:53:44.603Z,1005.49
2019-01-15T06:54:44.621Z,1005.43
2019-01-15T06:55:44.580Z,1005.33
2019-01-15T06:56:44.573Z,1005.49
2019-01-15T06:57:44.572Z,1005.33
2019-01-15T06:58:44.560Z,1005.38
2019-01-15T06:59:44.548Z,1005.38
2019-01-15T07:00:44.538Z,1005.43
2019-01-15T07:01:44.522Z,1005.36
2019-01-15T07:02:44.518Z,1005.48
2019-01-15T07:03:44.503Z,1005.45
2019-01-15T07:04:44.493Z,1005.48
2019-01-15T07:05:44.487Z,1005.43
2019-01-15T07:06:44.472Z,1005.48
2019-01-15T07:07:44.466Z,1005.54
2019-01-15T07:08:44.449Z,1005.51
2019-01-15T07:09:44.441Z,1005.45
2019-01-15T07:10:44.795Z,1005.43
2019-01-15T07:11:44.424Z,1005.57
2019-01-15T07:12:44.408Z,1005.46
2019-01-15T07:13:44.402Z,1005.52
2019-01-15T07:14:44.388Z,1005.52
2019-01-15T07:15:44.379Z,1005.45
2019-01-15T07:16:44.366Z,1005.43
2019-01-15T07:17:44.393Z,1005.41
2019-01-15T07:18:44.348Z,1005.48
2019-01-15T07:19:44.337Z,1005.49
2019-01-15T07:20:44.323Z,1005.51
2019-01-15T07:21:44.314Z,1005.48
2019-01-15T07:22:44.305Z,1005.50
2019-01-15T07:23:44.296Z,1005.45
2019-01-15T07:24:44.281Z,1005.46
2019-01-15T07:25:44.275Z,1005.53
2019-01-15T07:26:44.262Z,1005.52
2019-01-15T07:27:44.254Z,1005.50
2019-01-15T07:28:44.247Z,1005.43
2019-01-15T07:29:44.232Z,1005.40
2019-01-15T07:30:44.229Z,1005.49
2019-01-15T07:31:44.215Z,1005.49
2019-01-15T07:32:44.205Z,1005.46
2019-01-15T07:33:44.196Z,1005.47
2019-01-15T07:34:44.193Z,1005.42
2019-01-15T07:35:44.170Z,1005.50
2019-01-15T07:36:44.194Z,1005.42
2019-01-15T07:37:44.155Z,1005.49
2019-01-15T07:38:44.145Z,1005.46
2019-01-15T07:39:44.132Z,1005.49
2019-01-15T07:40:44.123Z,1005.50
2019-01-15T07:41:44.113Z,1005.47
2019-01-15T07:42:44.099Z,1005.49
2019-01-15T07:43:44.090Z,1005.45
2019-01-15T07:44:44.080Z,1005.42
2019-01-15T07:45:44.073Z,1005.39
2019-01-15T07:46:44.060Z,1005.29
2019-01-15T07:47:44.054Z,1005.30
2019-01-15T07:48:44.038Z,1005.29
2019-01-15T07:49:44.029Z,1005.34
2019-01-15T07:50:44.016Z,1005.40
2019-01-15T07:51:44.008Z,1005.37
2019-01-15T07:52:43.996Z,1005.38
2019-01-15T07:53:43.986Z,1005.43
2019-01-15T07:54:43.976Z,1005.40
2019-01-15T07:55:43.966Z,1005.40
2019-01-15T07:56:43.958Z,1005.49
2019-01-15T07:57:43.947Z,1005.53
2019-01-15T07:58:43.941Z,1005.56
2019-01-15T07:59:43.931Z,1005.49
2019-01-15T08:00:43.916Z,1005.54
2019-01-15T08:01:43.908Z,1005.55
2019-01-15T08:02:43.897Z,1005.55
2019-01-15T08:03:43.883Z,1005.59
2019-01-15T08:04:43.878Z,1005.60
2019-01-15T08:05:43.867Z,1005.56
2019-01-15T08:06:43.858Z,1005.59
2019-01-15T08:07:43.845Z,1005.50
2019-01-15T08:08:43.835Z,1005.47
2019-01-15T08:09:43.825Z,1005.68
2019-01-15T08:10:43.815Z,1005.57
2019-01-15T08:11:43.805Z,1005.57
2019-01-15T08:12:43.801Z,1005.53
2019-01-15T08:13:43.783Z,1005.53
2019-01-15T08:14:43.776Z,1005.53
2019-01-15T08:15:43.763Z,1005.58
2019-01-15T08:16:43.755Z,1005.51
2019-01-15T08:17:43.744Z,1005.50
2019-01-15T08:18:43.742Z,1005.54
2019-01-15T08:19:43.724Z,1005.56
2019-01-15T08:20:43.722Z,1005.55
2019-01-15T08:21:43.704Z,1005.63
2019-01-15T08:22:43.697Z,1005.52
2019-01-15T08:23:43.692Z,1005.64
2019-01-15T08:24:43.684Z,1005.63
2019-01-15T08:25:43.661Z,1005.57
2019-01-15T08:26:43.662Z,1005.62
2019-01-15T08:27:43.642Z,1005.62
2019-01-15T08:28:43.642Z,1005.60
2019-01-15T08:29:43.624Z,1005.57
2019-01-15T08:30:44.129Z,1005.57
2019-01-15T08:31:43.604Z,1005.48
2019-01-15T08:32:43.593Z,1005.54
2019-01-15T08:33:43.583Z,1005.53
2019-01-15T08:34:43.575Z,1005.46
2019-01-15T08:35:43.565Z,1005.41
2019-01-15T08:36:43.559Z,1005.50
2019-01-15T08:37:43.541Z,1005.45
2019-01-15T08:38:43.533Z,1005.49
2019-01-15T08:39:43.523Z,1005.34
2019-01-15T08:40:43.512Z,1005.36
2019-01-15T08:41:43.505Z,1005.24
2019-01-15T08:42:43.490Z,1005.35
2019-01-15T08:43:43.487Z,1005.34
2019-01-15T08:44:43.472Z,1005.47
2019-01-15T08:45:43.457Z,1005.40
2019-01-15T08:46:43.449Z,1005.32
2019-01-15T08:47:43.441Z,1005.35
2019-01-15T08:48:43.432Z,1005.33
2019-01-15T08:49:43.419Z,1005.39
2019-01-15T08:50:43.409Z,1005.44
2019-01-15T08:51:43.400Z,1005.52
2019-01-15T08:52:43.392Z,1005.47
2019-01-15T08:53:43.381Z,1005.52
2019-01-15T08:54:43.378Z,1005.49
2019-01-15T08:55:43.359Z,1005.54
2019-01-15T08:56:43.352Z,1005.55
2019-01-15T08:57:43.339Z,1005.44
2019-01-15T08:58:43.330Z,1005.49
2019-01-15T08:59:43.321Z,1005.46
2019-01-15T09:00:43.308Z,1005.43
2019-01-15T09:01:43.297Z,1005.49
2019-01-15T09:02:43.291Z,1005.54
2019-01-15T09:03:43.278Z,1005.28
2019-01-15T09:04:43.270Z,1005.58
2019-01-15T09:05:43.258Z,1005.57
2019-01-15T09:06:43.249Z,1005.59
2019-01-15T09:07:43.238Z,1005.57
2019-01-15T09:08:43.229Z,1005.61
2019-01-15T09:09:43.213Z,1005.57
2019-01-15T09:10:43.206Z,1005.56
2019-01-15T09:11:43.198Z,1005.63
2019-01-15T09:12:43.198Z,1005.56
2019-01-15T09:13:43.181Z,1005.59
2019-01-15T09:14:43.169Z,1005.52
2019-01-15T09:15:43.160Z,1005.62
2019-01-15T09:16:43.148Z,1005.67
2019-01-15T09:17:43.137Z,1005.66
2019-01-15T09:18:43.128Z,1005.61
2019-01-15T09:19:43.119Z,1005.73
2019-01-15T09:20:43.109Z,1005.76
2019-01-15T09:21:43.099Z,1005.72
2019-01-15T09:22:43.086Z,1005.61
2019-01-15T09:23:43.077Z,1005.71
2019-01-15T09:24:43.066Z,1005.73
2019-01-15T09:25:43.064Z,1005.75
2019-01-15T09:26:43.046Z,1005.68
2019-01-15T09:27:43.036Z,1005.70
2019-01-15T09:28:43.026Z,1005.79
2019-01-15T09:29:43.017Z,1005.76
2019-01-15T09:30:43.012Z,1005.68
2019-01-15T09:31:43.005Z,1005.75
2019-01-15T09:32:42.986Z,1005.71
2019-01-15T09:33:42.969Z,1005.76
2019-01-15T09:34:42.969Z,1005.80
2019-01-15T09:35:42.958Z,1005.72
2019-01-15T09:36:42.948Z,1005.69
2019-01-15T09:37:42.943Z,1005.70
2019-01-15T09:38:42.926Z,1005.78
2019-01-15T09:39:42.913Z,1005.79
2019-01-15T09:40:42.906Z,1005.75
2019-01-15T09:41:42.894Z,1005.70
2019-01-15T09:42:42.907Z,1005.76
2019-01-15T09:43:42.877Z,1005.76
2019-01-15T09:44:42.876Z,1005.75
2019-01-15T09:45:42.861Z,1005.60
2019-01-15T09:46:42.853Z,1005.67
2019-01-15T09:47:42.830Z,1005.64
2019-01-15T09:48:42.827Z,1005.63
2019-01-15T09:49:42.813Z,1005.61
2019-01-15T09:50:42.805Z,1005.66
2019-01-15T09:51:42.795Z,1005.61
2019-01-15T09:52:42.783Z,1005.65
2019-01-15T09:53:42.773Z,1005.69
2019-01-15T09:54:42.764Z,1005.66
2019-01-15T09:55:42.754Z,1005.66
2019-01-15T09:56:42.747Z,1005.64
2019-01-15T09:57:42.737Z,1005.62
2019-01-15T09:58:42.721Z,1005.60
2019-01-15T09:59:42.718Z,1005.62
2019-01-15T10:00:42.705Z,1005.53
2019-01-15T10:01:42.695Z,1005.54
2019-01-15T10:02:42.685Z,1005.55
2019-01-15T10:03:42.677Z,1005.43
2019-01-15T10:04:42.718Z,1005.54
2019-01-15T10:05:42.657Z,1005.46
2019-01-15T10:06:42.646Z,1005.51
2019-01-15T10:07:42.636Z,1005.43
2019-01-15T10:08:42.632Z,1005.53
2019-01-15T10:09:42.614Z,1005.50
2019-01-15T10:10:42.606Z,1005.51
2019-01-15T10:11:42.593Z,1005.46
2019-01-15T10:12:42.588Z,1005.41
2019-01-15T10:13:42.580Z,1005.46
2019-01-15T10:14:42.571Z,1005.53
2019-01-15T10:15:42.556Z,1005.47
2019-01-15T10:16:42.559Z,1005.46
2019-01-15T10:17:42.538Z,1005.44
2019-01-15T10:18:42.529Z,1005.44
2019-01-15T10:19:42.519Z,1005.42
2019-01-15T10:20:42.509Z,1005.38
2019-01-15T10:21:42.499Z,1005.37
2019-01-15T10:22:42.492Z,1005.45
2019-01-15T10:23:42.481Z,1005.39
2019-01-15T10:24:42.470Z,1005.40
2019-01-15T10:25:42.591Z,1005.42
2019-01-15T10:26:42.455Z,1005.43
2019-01-15T10:27:42.443Z,1005.37
2019-01-15T10:28:42.434Z,1005.38
2019-01-15T10:29:42.425Z,1005.36
2019-01-15T10:30:42.413Z,1005.38
2019-01-15T10:31:42.407Z,1005.39
2019-01-15T10:32:42.396Z,1005.37
2019-01-15T10:33:42.636Z,1005.34
2019-01-15T10:34:42.374Z,1005.35
2019-01-15T10:35:42.362Z,1005.31
2019-01-15T10:36:42.357Z,1005.34
2019-01-15T10:37:42.347Z,1005.34
2019-01-15T10:38:42.336Z,1005.26
2019-01-15T10:39:42.334Z,1005.30
2019-01-15T10:40:42.320Z,1005.26
2019-01-15T10:41:42.309Z,1005.28
2019-01-15T10:42:42.299Z,1005.30
2019-01-15T10:43:42.292Z,1005.28
2019-01-15T10:44:48.565Z,1005.29
2019-01-15T10:45:42.272Z,1005.28
2019-01-15T10:46:42.263Z,1005.28
2019-01-15T10:47:42.254Z,1005.26
2019-01-15T10:48:42.279Z,1005.29
2019-01-15T10:49:42.234Z,1005.23
2019-01-15T10:50:42.225Z,1005.27
2019-01-15T10:51:42.218Z,1005.14
2019-01-15T10:52:42.207Z,1005.18
2019-01-15T10:53:42.200Z,1005.13
2019-01-15T10:54:42.184Z,1005.15
2019-01-15T10:55:42.180Z,1005.13
2019-01-15T10:56:42.170Z,1005.13
2019-01-15T10:57:42.159Z,1005.09
2019-01-15T10:58:42.151Z,1005.06
2019-01-15T10:59:42.141Z,1005.08
2019-01-15T11:00:42.128Z,1005.04
2019-01-15T11:01:42.121Z,1005.08
2019-01-15T11:02:42.116Z,1005.07
2019-01-15T11:03:42.103Z,1005.06
2019-01-15T11:04:42.113Z,1005.11
2019-01-15T11:05:42.084Z,1005.11
2019-01-15T11:06:42.074Z,1005.18
2019-01-15T11:07:42.069Z,1005.14
2019-01-15T11:08:42.059Z,1005.08
2019-01-15T11:09:42.050Z,1004.97
2019-01-15T11:10:42.036Z,1005.07
2019-01-15T11:11:42.031Z,1005.07
2019-01-15T11:12:42.021Z,1005.10
2019-01-15T11:13:42.012Z,1005.10
2019-01-15T11:14:42.000Z,1005.05
2019-01-15T11:15:43.401Z,1005.08
2019-01-15T11:16:41.985Z,1004.99
2019-01-15T11:17:41.967Z,1005.05
2019-01-15T11:18:42.587Z,1004.99
2019-01-15T11:19:41.969Z,1004.98
2019-01-15T11:20:41.949Z,1004.94
2019-01-15T11:21:41.948Z,1004.89
2019-01-15T11:22:41.929Z,1004.97
2019-01-15T11:23:41.919Z,1004.99
2019-01-15T11:24:41.908Z,1004.93
2019-01-15T11:25:41.902Z,1004.95
2019-01-15T11:26:41.892Z,1004.91
2019-01-15T11:27:41.882Z,1004.93
2019-01-15T11:28:41.875Z,1004.93
2019-01-15T11:29:41.864Z,1004.92
2019-01-15T11:30:41.853Z,1004.98
2019-01-15T11:31:41.844Z,1004.91
2019-01-15T11:32:41.843Z,1004.96
2019-01-15T11:33:41.823Z,1005.02
2019-01-15T11:34:41.816Z,1004.96
2019-01-15T11:35:41.810Z,1004.91
2019-01-15T11:36:41.801Z,1004.89
2019-01-15T11:37:41.791Z,1004.94
2019-01-15T11:38:41.780Z,1004.89
2019-01-15T11:39:41.771Z,1004.91
2019-01-15T11:40:41.773Z,1004.86
2019-01-15T11:41:41.754Z,1004.86
2019-01-15T11:42:41.745Z,1004.84
2019-01-15T11:43:41.735Z,1004.82
2019-01-15T11:44:41.725Z,1004.80
2019-01-15T11:45:41.719Z,1004.76
2019-01-15T11:46:41.738Z,1004.74
2019-01-15T11:47:41.700Z,1004.72
2019-01-15T11:48:41.688Z,1004.64
2019-01-15T11:49:41.679Z,1004.59
2019-01-15T11:50:41.673Z,1004.62
2019-01-15T11:51:41.663Z,1004.55
2019-01-15T11:52:41.653Z,1004.68
2019-01-15T11:53:41.643Z,1004.61
2019-01-15T11:54:41.636Z,1004.66
2019-01-15T11:55:41.627Z,1004.59
2019-01-15T11:56:41.618Z,1004.61
2019-01-15T11:57:41.612Z,1004.62
2019-01-15T11:58:41.598Z,1004.68
2019-01-15T11:59:41.589Z,1004.65
2019-01-15T12:00:41.582Z,1004.58
2019-01-15T12:01:41.573Z,1004.69
2019-01-15T12:02:41.562Z,1004.61
2019-01-15T12:03:41.554Z,1004.54
2019-01-15T12:04:41.546Z,1004.62
2019-01-15T12:05:41.536Z,1004.68